Time;durP1;ratioP1;P1;durP2;ratioP2;P2;SDS_P1;SDS_P2;PMS_P1;PMS_P2;Temp;Humidity;BMP_temperature;BMP_pressure;BME280_temperature;BME280_humidity;BME280_pressure;Samples;Min_cycle;Max_cycle;Signal;HPM_P1;HPM_P2
2020/12/19 00:01:48;;;;;;;60.50;31.65;;;4.60;99.90;;;;;;5014724;28;20085;-72
2020/12/19 00:04:14;;;;;;;70.53;35.88;;;4.70;99.90;;;;;;5013518;28;20033;-72
2020/12/19 00:06:44;;;;;;;58.08;31.70;;;4.80;99.90;;;;;;5020486;28;20049;-73
2020/12/19 00:09:10;;;;;;;53.85;31.52;;;4.70;99.90;;;;;;5021563;28;20388;-73
2020/12/19 00:11:36;;;;;;;55.60;32.42;;;4.70;99.90;;;;;;5017721;28;20025;-71
2020/12/19 00:14:02;;;;;;;61.50;32.95;;;4.80;99.90;;;;;;5023298;28;20336;-72
2020/12/19 00:16:29;;;;;;;58.72;32.70;;;4.70;99.90;;;;;;5013424;28;20018;-73
2020/12/19 00:18:56;;;;;;;54.97;31.60;;;4.60;99.90;;;;;;5013846;28;20109;-72
2020/12/19 00:21:22;;;;;;;67.65;33.42;;;4.50;99.90;;;;;;5018714;28;20423;-73
2020/12/19 00:23:48;;;;;;;58.85;33.95;;;4.60;99.90;;;;;;5022295;28;20077;-71
2020/12/19 00:26:14;;;;;;;57.30;33.35;;;4.70;99.90;;;;;;5021324;28;20034;-73
2020/12/19 00:28:40;;;;;;;71.07;37.03;;;4.70;99.90;;;;;;5013817;28;20026;-74
2020/12/19 00:31:07;;;;;;;66.57;34.03;;;4.80;99.90;;;;;;5013393;28;20357;-75
2020/12/19 00:33:33;;;;;;;59.42;33.13;;;4.70;99.90;;;;;;4995717;28;20032;-74
2020/12/19 00:35:59;;;;;;;57.60;31.73;;;4.60;99.90;;;;;;5013041;28;20022;-74
2020/12/19 00:38:24;;;;;;;65.47;34.55;;;4.70;99.90;;;;;;5013253;28;20104;-74
2020/12/19 00:40:50;;;;;;;58.55;34.25;;;4.80;99.90;;;;;;4995351;28;20110;-73
2020/12/19 00:43:16;;;;;;;57.35;33.42;;;4.70;99.90;;;;;;5013892;28;20052;-73
2020/12/19 00:45:41;;;;;;;62.50;32.83;;;4.70;99.90;;;;;;5013413;28;20478;-74
2020/12/19 00:48:07;;;;;;;65.43;33.47;;;4.60;99.90;;;;;;5013533;28;20040;-72
2020/12/19 00:50:33;;;;;;;52.53;29.63;;;4.50;99.90;;;;;;5013852;28;20045;-73
2020/12/19 00:52:59;;;;;;;55.00;30.63;;;4.60;99.90;;;;;;5011980;28;20034;-72
2020/12/19 00:55:24;;;;;;;61.00;32.20;;;4.50;99.90;;;;;;5030095;28;20040;-74
2020/12/19 00:57:50;;;;;;;55.50;30.85;;;4.60;99.90;;;;;;5021463;28;20685;-73
2020/12/19 01:00:16;;;;;;;53.58;31.20;;;4.60;99.90;;;;;;5005721;28;20042;-73
2020/12/19 01:02:41;;;;;;;55.60;29.25;;;4.70;99.90;;;;;;4996882;28;20064;-74
2020/12/19 01:05:08;;;;;;;57.13;29.55;;;4.70;99.90;;;;;;5031594;28;20032;-74
2020/12/19 01:07:38;;;;;;;53.28;28.23;;;4.80;99.90;;;;;;5030877;28;20183;-73
2020/12/19 01:10:09;;;;;;;56.35;28.15;;;4.80;99.90;;;;;;5011834;28;20593;-72
2020/12/19 01:12:37;;;;;;;46.55;27.02;;;4.70;99.90;;;;;;5030837;28;20021;-73
2020/12/19 01:15:16;;;;;;;57.42;29.17;;;4.80;99.90;;;;;;5028135;28;20022;-75
2020/12/19 01:17:42;;;;;;;54.22;28.50;;;4.70;99.90;;;;;;5010015;28;20082;-74
2020/12/19 01:20:09;;;;;;;59.15;29.88;;;4.70;99.90;;;;;;5011935;28;20025;-73
2020/12/19 01:22:34;;;;;;;54.40;30.58;;;4.70;99.90;;;;;;5031433;28;20022;-73
2020/12/19 01:25:00;;;;;;;61.25;33.25;;;4.70;99.90;;;;;;5028062;28;20037;-75
2020/12/19 01:27:26;;;;;;;63.75;32.75;;;4.60;99.90;;;;;;5026308;28;20055;-72
2020/12/19 01:29:52;;;;;;;54.10;29.77;;;4.60;99.90;;;;;;5012704;28;20371;-72
2020/12/19 01:32:18;;;;;;;52.80;27.77;;;4.70;99.90;;;;;;5030916;28;20022;-73
2020/12/19 01:34:43;;;;;;;49.53;29.75;;;4.70;99.90;;;;;;5023280;28;20119;-74
2020/12/19 01:37:09;;;;;;;55.20;33.30;;;4.70;99.90;;;;;;5025470;28;20048;-71
2020/12/19 01:39:35;;;;;;;63.33;33.75;;;4.70;99.90;;;;;;5019100;28;20025;-77
2020/12/19 01:42:01;;;;;;;67.28;37.60;;;4.70;99.90;;;;;;5032797;28;20047;-70
2020/12/19 01:44:27;;;;;;;75.57;41.28;;;4.70;99.90;;;;;;5031961;28;20029;-73
2020/12/19 01:46:58;;;;;;;75.75;38.05;;;4.70;99.90;;;;;;5032163;28;20025;-75
2020/12/19 01:49:33;;;;;;;72.00;37.45;;;4.60;99.90;;;;;;5032787;28;20040;-73
2020/12/19 01:52:04;;;;;;;75.30;38.65;;;4.60;99.90;;;;;;5033202;28;20025;-71
2020/12/19 01:54:30;;;;;;;65.32;36.60;;;4.60;99.90;;;;;;5031652;28;20037;-73
2020/12/19 01:57:01;;;;;;;57.17;31.75;;;4.70;99.90;;;;;;5032012;28;20025;-73
2020/12/19 01:59:28;;;;;;;65.63;33.97;;;4.80;99.90;;;;;;5031973;28;20030;-75
2020/12/19 02:02:07;;;;;;;56.67;30.40;;;4.80;99.90;;;;;;5030165;28;20107;-73
2020/12/19 02:04:34;;;;;;;59.95;32.28;;;4.90;99.90;;;;;;5029739;28;20029;-73
2020/12/19 02:07:04;;;;;;;66.38;30.40;;;4.80;99.90;;;;;;5020829;28;20248;-71
2020/12/19 02:09:38;;;;;;;59.92;32.90;;;4.70;99.90;;;;;;5034743;28;20619;-72
2020/12/19 02:12:04;;;;;;;57.90;29.98;;;4.70;99.90;;;;;;5036309;28;20026;-73
2020/12/19 02:14:31;;;;;;;61.65;31.30;;;4.70;99.90;;;;;;5035716;28;20030;-73
2020/12/19 02:17:05;;;;;;;68.55;31.42;;;4.70;99.90;;;;;;5031754;28;20101;-74
2020/12/19 02:19:32;;;;;;;68.13;34.85;;;4.60;99.90;;;;;;5016642;28;20475;-78
2020/12/19 02:21:58;;;;;;;64.88;32.97;;;4.60;99.90;;;;;;5016181;28;20026;-76
2020/12/19 02:24:25;;;;;;;63.03;34.50;;;4.70;99.90;;;;;;5017130;28;20116;-73
2020/12/19 02:26:53;;;;;;;66.03;35.42;;;4.80;99.90;;;;;;5034880;28;20038;-75
2020/12/19 02:29:20;;;;;;;71.38;35.30;;;4.90;99.90;;;;;;5029086;28;20026;-75
2020/12/19 02:31:47;;;;;;;79.55;38.05;;;4.90;99.90;;;;;;5027223;28;20029;-75
2020/12/19 02:34:13;;;;;;;78.13;39.63;;;4.80;99.90;;;;;;5033275;28;20466;-76
2020/12/19 02:36:39;;;;;;;78.90;41.10;;;4.80;99.90;;;;;;5008513;28;20029;-75
2020/12/19 02:39:06;;;;;;;67.68;35.97;;;4.70;99.90;;;;;;5028647;28;20111;-73
2020/12/19 02:41:36;;;;;;;88.15;41.60;;;4.60;99.90;;;;;;5036704;28;20021;-75
2020/12/19 02:44:02;;;;;;;72.63;38.28;;;4.70;99.90;;;;;;5033972;28;20045;-75
2020/12/19 02:46:28;;;;;;;74.78;39.22;;;4.70;99.90;;;;;;5010977;28;20026;-73
2020/12/19 02:48:53;;;;;;;76.53;36.42;;;4.70;99.90;;;;;;5032411;28;20048;-73
2020/12/19 02:51:19;;;;;;;88.80;39.22;;;4.80;99.90;;;;;;5040779;28;20053;-73
2020/12/19 02:53:45;;;;;;;76.18;35.97;;;4.90;99.90;;;;;;5044511;28;20026;-73
2020/12/19 02:56:11;;;;;;;65.70;33.03;;;4.80;99.90;;;;;;5016098;28;20117;-75
2020/12/19 02:58:36;;;;;;;72.88;35.95;;;4.90;99.90;;;;;;5050107;28;20025;-73
2020/12/19 03:01:02;;;;;;;68.72;32.90;;;4.90;99.90;;;;;;5046922;28;20067;-74
2020/12/19 03:03:28;;;;;;;68.78;35.08;;;4.90;99.90;;;;;;5046519;28;20029;-76
2020/12/19 03:05:54;;;;;;;70.03;36.25;;;4.70;99.90;;;;;;5038368;28;20116;-77
2020/12/19 03:08:20;;;;;;;72.43;32.53;;;4.60;99.90;;;;;;5037345;28;20029;-76
2020/12/19 03:10:45;;;;;;;63.05;31.20;;;4.50;99.90;;;;;;5035266;28;20017;-76
2020/12/19 03:13:11;;;;;;;50.88;29.95;;;4.60;99.90;;;;;;5032611;28;20104;-76
2020/12/19 03:15:37;;;;;;;60.10;31.08;;;4.70;99.90;;;;;;5033030;28;20033;-76
2020/12/19 03:18:03;;;;;;;60.17;32.42;;;4.70;99.90;;;;;;5034951;28;20108;-76
2020/12/19 03:20:29;;;;;;;60.97;29.58;;;4.70;99.90;;;;;;5015804;28;20026;-75
2020/12/19 03:22:54;;;;;;;52.80;27.50;;;4.80;99.90;;;;;;4997151;28;20490;-74
2020/12/19 03:25:20;;;;;;;56.70;29.23;;;4.80;99.90;;;;;;5030615;28;20026;-77
2020/12/19 03:27:46;;;;;;;54.28;28.50;;;4.80;99.90;;;;;;5030665;28;20034;-76
2020/12/19 03:30:12;;;;;;;55.25;27.55;;;4.80;99.90;;;;;;5044467;28;20017;-73
2020/12/19 03:32:38;;;;;;;63.28;32.90;;;4.80;99.90;;;;;;5046131;28;20025;-74
2020/12/19 03:35:04;;;;;;;60.58;29.55;;;4.90;99.90;;;;;;5035386;28;20080;-75
2020/12/19 03:37:33;;;;;;;54.53;27.45;;;4.80;99.90;;;;;;5012726;28;20030;-76
2020/12/19 03:40:00;;;;;;;57.20;30.90;;;4.80;99.90;;;;;;5022181;28;20029;-73
2020/12/19 03:42:25;;;;;;;59.45;30.95;;;4.70;99.90;;;;;;5029519;28;20116;-73
2020/12/19 03:44:51;;;;;;;58.70;29.02;;;4.60;99.90;;;;;;5033294;28;20121;-73
2020/12/19 03:47:17;;;;;;;61.08;31.13;;;4.70;99.90;;;;;;5030898;28;20075;-73
2020/12/19 03:49:42;;;;;;;58.30;31.15;;;4.70;99.90;;;;;;5032118;28;20506;-73
2020/12/19 03:52:08;;;;;;;59.17;32.22;;;4.60;99.90;;;;;;5032895;28;20025;-74
2020/12/19 03:54:34;;;;;;;52.97;28.00;;;4.60;99.90;;;;;;5030745;28;20033;-75
2020/12/19 03:57:00;;;;;;;57.15;30.73;;;4.60;99.90;;;;;;5031326;28;20423;-75
2020/12/19 03:59:26;;;;;;;54.08;30.10;;;4.50;99.90;;;;;;5031202;28;20530;-75
2020/12/19 04:01:51;;;;;;;66.78;31.38;;;4.50;99.90;;;;;;5029643;28;20029;-75
2020/12/19 04:04:17;;;;;;;68.93;35.47;;;4.40;99.90;;;;;;5031749;28;20021;-75
2020/12/19 04:06:44;;;;;;;58.13;30.90;;;4.40;99.90;;;;;;5032451;28;20029;-73
2020/12/19 04:09:10;;;;;;;57.45;30.90;;;4.50;99.90;;;;;;5032857;28;20033;-74
2020/12/19 04:11:36;;;;;;;66.40;33.28;;;4.50;99.90;;;;;;5031441;28;20063;-74
2020/12/19 04:14:01;;;;;;;63.22;32.30;;;4.50;99.90;;;;;;5032466;28;20056;-74
2020/12/19 04:16:27;;;;;;;61.28;32.55;;;4.60;99.90;;;;;;5030111;28;20040;-74
2020/12/19 04:18:53;;;;;;;65.07;32.03;;;4.60;99.90;;;;;;5032912;28;20413;-72
2020/12/19 04:21:18;;;;;;;62.55;32.72;;;4.70;99.90;;;;;;5031990;28;20434;-73
2020/12/19 04:23:44;;;;;;;60.38;32.33;;;4.70;99.90;;;;;;5030075;28;20042;-74
2020/12/19 04:26:10;;;;;;;71.07;34.72;;;4.80;99.90;;;;;;5032359;28;20360;-74
2020/12/19 04:28:35;;;;;;;69.13;36.75;;;4.80;99.90;;;;;;5030151;28;20033;-76
2020/12/19 04:31:01;;;;;;;71.90;34.83;;;4.70;99.90;;;;;;5031199;28;20108;-75
2020/12/19 04:33:27;;;;;;;76.00;36.97;;;4.60;99.90;;;;;;5032690;28;20076;-74
2020/12/19 04:35:52;;;;;;;67.93;34.47;;;4.60;99.90;;;;;;5031368;28;20021;-76
2020/12/19 04:38:19;;;;;;;67.43;34.55;;;4.50;99.90;;;;;;5031910;28;20048;-76
2020/12/19 04:40:45;;;;;;;65.75;33.80;;;4.50;99.90;;;;;;5029830;28;20041;-75
2020/12/19 04:43:16;;;;;;;59.55;32.75;;;4.50;99.90;;;;;;5022048;28;20044;-80
2020/12/19 04:45:43;;;;;;;61.08;32.88;;;4.60;99.90;;;;;;5022379;28;20062;-74
2020/12/19 04:48:09;;;;;;;64.13;35.85;;;4.60;99.90;;;;;;5033491;28;20029;-72
2020/12/19 04:50:39;;;;;;;65.63;33.97;;;4.70;99.90;;;;;;5002409;28;20384;-70
2020/12/19 04:53:16;;;;;;;65.70;33.92;;;4.70;99.90;;;;;;5031061;28;20482;-72
2020/12/19 04:55:43;;;;;;;58.58;32.17;;;4.80;99.90;;;;;;5034056;28;20041;-72
2020/12/19 04:58:20;;;;;;;62.92;34.33;;;4.80;99.90;;;;;;5033007;28;20180;-72
2020/12/19 05:00:47;;;;;;;67.32;34.38;;;4.80;99.90;;;;;;5033588;28;20055;-73
2020/12/19 05:03:13;;;;;;;55.55;33.25;;;4.90;99.90;;;;;;5033612;28;20029;-73
2020/12/19 05:05:45;;;;;;;68.57;36.25;;;4.80;99.90;;;;;;5033207;28;20507;-73
2020/12/19 05:08:12;;;;;;;70.70;37.10;;;4.90;99.90;;;;;;5033354;28;20467;-72
2020/12/19 05:10:38;;;;;;;59.10;31.65;;;4.90;99.90;;;;;;5032811;28;20479;-72
2020/12/19 05:13:05;;;;;;;121.15;66.93;;;4.90;99.90;;;;;;5033364;28;20104;-72
2020/12/19 05:15:31;;;;;;;110.55;60.58;;;4.90;99.90;;;;;;5021843;28;20463;-72
2020/12/19 05:17:58;;;;;;;108.35;60.15;;;5.00;99.90;;;;;;5030492;28;20022;-72
2020/12/19 05:20:28;;;;;;;87.15;48.40;;;5.10;99.90;;;;;;5016356;28;20217;-73
2020/12/19 05:22:54;;;;;;;91.35;50.08;;;5.20;99.90;;;;;;4996062;28;20053;-72
2020/12/19 05:25:23;;;;;;;95.90;53.45;;;5.30;99.90;;;;;;5013093;28;20057;-73
2020/12/19 05:27:50;;;;;;;60.00;31.42;;;5.30;99.90;;;;;;5013282;28;20033;-75
2020/12/19 05:30:17;;;;;;;63.47;33.17;;;5.20;99.90;;;;;;5013382;28;20026;-73
2020/12/19 05:32:49;;;;;;;67.20;33.25;;;5.00;99.90;;;;;;5013226;28;20030;-73
2020/12/19 05:35:15;;;;;;;58.10;31.20;;;5.10;99.90;;;;;;5013340;28;20046;-73
2020/12/19 05:37:42;;;;;;;61.10;35.70;;;5.10;99.90;;;;;;5013406;28;20049;-73
2020/12/19 05:40:12;;;;;;;58.88;32.72;;;5.00;99.90;;;;;;4995462;28;20026;-73
2020/12/19 05:42:39;;;;;;;66.90;34.20;;;5.00;99.90;;;;;;5013869;28;20460;-73
2020/12/19 05:45:18;;;;;;;54.40;29.73;;;5.00;99.90;;;;;;5017406;28;20034;-73
2020/12/19 05:47:44;;;;;;;57.30;31.08;;;5.00;99.90;;;;;;5017106;28;20029;-73
2020/12/19 05:50:11;;;;;;;63.75;33.55;;;5.00;99.90;;;;;;5017387;28;20479;-72
2020/12/19 05:52:40;;;;;;;64.50;31.88;;;4.90;99.90;;;;;;5017239;28;20065;-73
2020/12/19 05:55:08;;;;;;;53.75;30.40;;;4.90;99.90;;;;;;5017540;28;20530;-74
2020/12/19 05:57:35;;;;;;;62.80;33.85;;;5.00;99.90;;;;;;5016846;28;20061;-74
2020/12/19 06:00:06;;;;;;;61.92;32.83;;;5.00;99.90;;;;;;4998937;28;20050;-73
2020/12/19 06:02:32;;;;;;;57.33;31.88;;;4.90;99.90;;;;;;4999748;28;20048;-73
2020/12/19 06:05:01;;;;;;;60.13;34.10;;;4.90;99.90;;;;;;5017063;28;20033;-74
2020/12/19 06:07:35;;;;;;;53.13;31.38;;;4.70;99.90;;;;;;5016450;28;20030;-74
2020/12/19 06:10:03;;;;;;;61.88;31.58;;;4.60;99.90;;;;;;4999420;28;20452;-73
2020/12/19 06:13:02;;;;;;;59.90;31.85;;;4.70;99.90;;;;;;5016770;28;20079;-73
2020/12/19 06:16:05;;;;;;;75.85;39.78;;;4.70;99.90;;;;;;5016239;28;20030;-74
2020/12/19 06:18:50;;;;;;;59.60;29.33;;;4.80;99.90;;;;;;5030785;28;20028;-73
2020/12/19 06:21:16;;;;;;;71.22;39.08;;;4.80;99.90;;;;;;5016489;28;20068;-73
2020/12/19 06:23:43;;;;;;;66.65;34.53;;;4.90;99.90;;;;;;5016617;28;20026;-72
2020/12/19 06:26:10;;;;;;;61.88;35.55;;;4.80;99.90;;;;;;5016535;28;20105;-73
2020/12/19 06:28:42;;;;;;;68.25;35.67;;;4.80;99.90;;;;;;5016547;28;20026;-73
2020/12/19 06:31:21;;;;;;;57.72;34.63;;;4.80;99.90;;;;;;5029000;28;20040;-73
2020/12/19 06:33:50;;;;;;;63.00;36.22;;;4.90;99.90;;;;;;4999047;28;20436;-73
2020/12/19 06:36:29;;;;;;;67.00;38.13;;;4.90;99.90;;;;;;5025177;28;20052;-73
2020/12/19 06:38:56;;;;;;;64.40;35.15;;;4.90;99.90;;;;;;5006310;28;20037;-74
2020/12/19 06:41:43;;;;;;;65.32;34.78;;;4.70;99.90;;;;;;5016123;28;20029;-73
2020/12/19 06:44:25;;;;;;;54.95;33.38;;;4.70;99.90;;;;;;5015935;28;20434;-72
2020/12/19 06:46:52;;;;;;;61.15;31.98;;;4.70;99.90;;;;;;5016221;28;20380;-73
2020/12/19 06:49:24;;;;;;;62.22;33.25;;;4.80;99.90;;;;;;4998731;28;20026;-71
2020/12/19 06:52:13;;;;;;;63.15;32.95;;;4.80;99.90;;;;;;5016568;28;20410;-72
2020/12/19 06:54:43;;;;;;;64.95;33.08;;;4.70;99.90;;;;;;4998566;28;20034;-72
2020/12/19 06:57:30;;;;;;;71.32;37.05;;;4.70;99.90;;;;;;5027166;28;20096;-73
2020/12/19 07:00:18;;;;;;;73.20;40.75;;;4.70;99.90;;;;;;5015698;28;20435;-72
2020/12/19 07:02:52;;;;;;;65.60;35.97;;;4.80;99.90;;;;;;5015620;28;20084;-73
2020/12/19 07:05:25;;;;;;;65.53;34.15;;;4.90;99.90;;;;;;5015980;28;20026;-73
2020/12/19 07:07:52;;;;;;;62.75;34.80;;;4.80;99.90;;;;;;5015993;28;20026;-74
2020/12/19 07:10:38;;;;;;;69.88;38.28;;;4.70;99.90;;;;;;5015713;28;20361;-73
2020/12/19 07:13:06;;;;;;;58.88;35.55;;;4.80;99.90;;;;;;5015431;28;20056;-73
2020/12/19 07:15:47;;;;;;;71.30;38.47;;;4.80;99.90;;;;;;5024377;28;20075;-74
2020/12/19 07:18:33;;;;;;;72.55;39.70;;;4.80;99.90;;;;;;5030992;28;20025;-73
2020/12/19 07:21:05;;;;;;;78.03;40.70;;;4.80;99.90;;;;;;5015858;28;20059;-73
2020/12/19 07:23:39;;;;;;;80.18;46.42;;;4.70;99.90;;;;;;5014990;28;20080;-73
2020/12/19 07:26:06;;;;;;;85.60;46.00;;;4.80;99.90;;;;;;5015732;28;20460;-73
2020/12/19 07:28:32;;;;;;;72.30;42.58;;;4.90;99.90;;;;;;5015672;28;20034;-73
2020/12/19 07:30:58;;;;;;;74.88;41.22;;;4.80;99.90;;;;;;5015155;28;20103;-74
2020/12/19 07:33:24;;;;;;;80.07;43.30;;;4.90;99.90;;;;;;5015216;28;20476;-73
2020/12/19 07:35:50;;;;;;;96.10;51.55;;;4.70;99.90;;;;;;5015132;28;20033;-74
2020/12/19 07:38:18;;;;;;;95.90;52.85;;;4.70;99.90;;;;;;5014822;28;20033;-75
2020/12/19 07:40:44;;;;;;;79.32;47.05;;;4.60;99.90;;;;;;5015794;28;20022;-75
2020/12/19 07:43:11;;;;;;;89.82;48.40;;;4.70;99.90;;;;;;5015631;28;20514;-75
2020/12/19 07:45:38;;;;;;;88.07;47.85;;;4.80;99.90;;;;;;5014553;28;20392;-73
2020/12/19 07:48:06;;;;;;;93.32;53.88;;;4.80;99.90;;;;;;5015255;28;20465;-75
2020/12/19 07:50:33;;;;;;;94.05;49.40;;;4.70;99.90;;;;;;5014991;28;20133;-74
2020/12/19 07:53:01;;;;;;;106.97;55.78;;;4.70;99.90;;;;;;5014680;28;20014;-73
2020/12/19 07:55:27;;;;;;;99.90;50.35;;;4.70;99.90;;;;;;5015380;28;20481;-72
2020/12/19 07:57:57;;;;;;;95.65;52.08;;;4.60;99.90;;;;;;5014587;28;20018;-74
2020/12/19 08:00:26;;;;;;;87.78;51.00;;;4.60;99.90;;;;;;5014342;28;20049;-73
2020/12/19 08:02:52;;;;;;;90.55;50.42;;;4.60;99.90;;;;;;5022284;28;20541;-73
2020/12/19 08:05:19;;;;;;;85.13;48.08;;;4.60;99.90;;;;;;5004984;28;20060;-73
2020/12/19 08:07:45;;;;;;;80.80;44.67;;;4.60;99.90;;;;;;5028838;28;20543;-72
2020/12/19 08:10:13;;;;;;;88.00;47.70;;;4.60;99.90;;;;;;5033351;28;20017;-74
2020/12/19 08:12:39;;;;;;;93.25;52.47;;;4.60;99.90;;;;;;5032934;28;20084;-74
2020/12/19 08:15:16;;;;;;;95.28;54.95;;;4.60;99.90;;;;;;5026866;28;20065;-74
2020/12/19 08:17:46;;;;;;;90.05;51.90;;;4.60;99.90;;;;;;5033663;28;20026;-74
2020/12/19 08:20:13;;;;;;;94.65;51.85;;;4.60;99.90;;;;;;5019216;28;20040;-75
2020/12/19 08:22:40;;;;;;;99.88;53.42;;;4.70;99.90;;;;;;5024690;28;20030;-73
2020/12/19 08:25:10;;;;;;;93.10;55.40;;;4.70;99.90;;;;;;5003820;28;20033;-73
2020/12/19 08:27:44;;;;;;;109.75;57.35;;;4.60;99.90;;;;;;5027887;28;20042;-73
2020/12/19 08:30:10;;;;;;;118.63;63.38;;;4.70;99.90;;;;;;5030321;28;20028;-74
2020/12/19 08:32:49;;;;;;;129.55;73.47;;;4.80;99.90;;;;;;5011200;28;20030;-74
2020/12/19 08:35:42;;;;;;;109.47;61.15;;;4.80;99.90;;;;;;5024829;28;20514;-74
2020/12/19 08:38:19;;;;;;;96.47;52.88;;;4.80;99.90;;;;;;4999997;28;20044;-73
2020/12/19 08:40:49;;;;;;;86.25;48.15;;;4.80;99.90;;;;;;5019402;28;20121;-73
2020/12/19 08:43:16;;;;;;;85.95;47.08;;;4.80;99.90;;;;;;5016530;28;20526;-73
2020/12/19 08:45:49;;;;;;;101.95;55.42;;;4.80;99.90;;;;;;5011376;28;20030;-73
2020/12/19 08:48:18;;;;;;;92.95;53.83;;;4.80;99.90;;;;;;5013050;28;20352;-72
2020/12/19 08:50:45;;;;;;;90.25;52.25;;;4.80;99.90;;;;;;5030477;28;20487;-72
2020/12/19 08:53:25;;;;;;;98.30;55.95;;;4.70;99.90;;;;;;5033430;28;20013;-74
2020/12/19 08:55:53;;;;;;;112.00;60.95;;;4.80;99.90;;;;;;5025259;28;20494;-75
2020/12/19 08:58:26;;;;;;;86.80;47.50;;;4.80;99.90;;;;;;5021933;28;20475;-74
2020/12/19 09:00:54;;;;;;;86.65;50.00;;;4.80;99.90;;;;;;4994686;28;20045;-78
2020/12/19 09:03:31;;;;;;;71.68;39.15;;;4.80;99.90;;;;;;5020576;28;20029;-73
2020/12/19 09:06:02;;;;;;;105.28;57.90;;;4.90;99.90;;;;;;5019173;28;20038;-74
2020/12/19 09:08:47;;;;;;;62.17;34.65;;;4.90;99.90;;;;;;5017055;28;20057;-72
2020/12/19 09:11:27;;;;;;;74.85;42.92;;;4.80;99.90;;;;;;5025381;28;20029;-73
2020/12/19 09:14:10;;;;;;;83.00;43.20;;;4.90;99.90;;;;;;5022762;28;20035;-76
2020/12/19 09:16:48;;;;;;;62.75;33.50;;;4.90;99.90;;;;;;5031316;28;20033;-74
2020/12/19 09:19:18;;;;;;;60.50;31.88;;;5.00;99.90;;;;;;5017562;28;20113;-77
2020/12/19 09:21:57;;;;;;;59.60;29.55;;;4.90;99.90;;;;;;5019911;28;20129;-75
2020/12/19 09:24:23;;;;;;;63.83;32.65;;;5.00;99.90;;;;;;5007879;28;20364;-75
2020/12/19 09:26:49;;;;;;;46.67;28.33;;;4.90;99.90;;;;;;5029594;28;20025;-74
2020/12/19 09:29:16;;;;;;;44.88;28.00;;;4.90;99.90;;;;;;5024586;28;20041;-76
2020/12/19 09:31:42;;;;;;;55.78;30.95;;;5.00;99.90;;;;;;5026776;28;20034;-73
2020/12/19 09:34:08;;;;;;;63.85;31.73;;;5.00;99.90;;;;;;5025625;28;20082;-73
2020/12/19 09:36:34;;;;;;;48.67;28.60;;;5.00;99.90;;;;;;5026735;28;20021;-74
2020/12/19 09:39:00;;;;;;;62.08;34.20;;;5.00;99.90;;;;;;5027551;28;20053;-74
2020/12/19 09:41:25;;;;;;;74.45;40.67;;;5.00;99.90;;;;;;5026070;28;20026;-72
2020/12/19 09:43:51;;;;;;;58.47;31.88;;;5.00;99.90;;;;;;5031854;28;20030;-70
2020/12/19 09:46:17;;;;;;;59.03;34.65;;;5.10;99.90;;;;;;5032733;28;20044;-71
2020/12/19 09:48:43;;;;;;;78.07;40.90;;;5.10;99.90;;;;;;5026508;28;20124;-74
2020/12/19 09:51:09;;;;;;;81.68;42.50;;;5.10;99.90;;;;;;5021233;28;20064;-74
2020/12/19 09:53:36;;;;;;;99.28;54.67;;;5.10;99.90;;;;;;5016819;28;20034;-75
2020/12/19 09:56:02;;;;;;;69.40;36.35;;;5.10;99.90;;;;;;5015657;28;20064;-75
2020/12/19 09:58:28;;;;;;;71.05;40.00;;;5.20;99.90;;;;;;4999398;28;20037;-76
2020/12/19 10:00:54;;;;;;;61.97;35.75;;;5.20;99.90;;;;;;5019326;28;20041;-75
2020/12/19 10:03:20;;;;;;;57.13;32.85;;;5.20;99.90;;;;;;5023872;28;20022;-75
2020/12/19 10:05:46;;;;;;;68.75;40.88;;;5.10;99.90;;;;;;5018211;28;20025;-76
2020/12/19 10:08:12;;;;;;;75.22;40.58;;;5.20;99.90;;;;;;5024287;28;20042;-76
2020/12/19 10:10:39;;;;;;;62.53;33.28;;;5.10;99.90;;;;;;5019990;28;20030;-73
2020/12/19 10:13:05;;;;;;;65.53;29.27;;;5.10;99.90;;;;;;5031980;28;20021;-72
2020/12/19 10:15:30;;;;;;;49.65;31.25;;;5.20;99.90;;;;;;5016736;28;20351;-72
2020/12/19 10:17:56;;;;;;;56.20;31.85;;;5.20;99.90;;;;;;4999126;28;20030;-75
2020/12/19 10:20:22;;;;;;;56.90;34.92;;;5.30;99.90;;;;;;5024797;28;20054;-72
2020/12/19 10:22:47;;;;;;;59.58;35.58;;;5.40;99.90;;;;;;5021972;28;20391;-72
2020/12/19 10:25:13;;;;;;;64.03;35.03;;;5.60;99.90;;;;;;5023783;28;20072;-72
2020/12/19 10:27:40;;;;;;;47.53;28.33;;;5.80;99.90;;;;;;5021490;28;20417;-73
2020/12/19 10:30:05;;;;;;;61.15;32.10;;;5.70;99.90;;;;;;5033498;28;20037;-74
2020/12/19 10:32:31;;;;;;;54.13;29.92;;;5.70;99.90;;;;;;5023411;28;20021;-72
2020/12/19 10:34:57;;;;;;;56.35;30.95;;;5.60;99.90;;;;;;5033351;28;20089;-74
2020/12/19 10:37:23;;;;;;;44.90;27.10;;;5.60;99.90;;;;;;5033257;28;20052;-75
2020/12/19 10:39:49;;;;;;;52.28;29.33;;;5.70;99.90;;;;;;5031948;28;20518;-72
2020/12/19 10:42:15;;;;;;;47.63;26.20;;;5.60;99.90;;;;;;5026779;28;20037;-74
2020/12/19 10:44:41;;;;;;;57.13;30.65;;;5.50;99.90;;;;;;5028715;28;20041;-74
2020/12/19 10:47:07;;;;;;;64.05;35.65;;;5.50;99.90;;;;;;5005320;28;20104;-75
2020/12/19 10:49:33;;;;;;;63.70;35.70;;;5.50;99.90;;;;;;5027051;28;20025;-76
2020/12/19 10:52:03;;;;;;;60.72;35.05;;;5.50;99.90;;;;;;5030845;28;20079;-74
2020/12/19 10:54:28;;;;;;;62.80;36.28;;;5.50;99.90;;;;;;5030921;28;20017;-74
2020/12/19 10:56:55;;;;;;;65.90;36.83;;;5.50;99.90;;;;;;5013455;28;20036;-74
2020/12/19 10:59:21;;;;;;;70.03;38.53;;;5.40;99.90;;;;;;5032561;28;20637;-73
2020/12/19 11:01:46;;;;;;;67.90;38.35;;;5.40;99.90;;;;;;5031671;28;20038;-76
2020/12/19 11:04:12;;;;;;;61.47;37.40;;;5.30;99.90;;;;;;5003511;28;20049;-75
2020/12/19 11:06:38;;;;;;;71.63;41.08;;;5.40;99.90;;;;;;5033348;28;20120;-74
2020/12/19 11:09:04;;;;;;;74.05;41.90;;;5.40;99.90;;;;;;5025320;28;20500;-75
2020/12/19 11:11:30;;;;;;;82.40;45.45;;;5.40;99.90;;;;;;5025527;28;20043;-76
2020/12/19 11:13:56;;;;;;;91.00;47.60;;;5.40;99.90;;;;;;5014741;28;20029;-75
2020/12/19 11:16:24;;;;;;;83.70;48.35;;;5.30;99.90;;;;;;5034728;28;20075;-74
2020/12/19 11:18:50;;;;;;;84.97;47.97;;;5.30;99.90;;;;;;5025204;28;20137;-74
2020/12/19 11:21:17;;;;;;;83.88;46.42;;;5.30;99.90;;;;;;5024559;28;20132;-74
2020/12/19 11:23:43;;;;;;;85.65;48.83;;;5.30;99.90;;;;;;5018816;28;20029;-77
2020/12/19 11:26:09;;;;;;;86.25;45.53;;;5.20;99.90;;;;;;5024720;28;20482;-75
2020/12/19 11:28:36;;;;;;;78.35;44.88;;;5.30;99.90;;;;;;5028496;28;20120;-73
2020/12/19 11:31:02;;;;;;;74.32;43.25;;;5.30;99.90;;;;;;5025811;28;20427;-75
2020/12/19 11:33:28;;;;;;;89.55;46.70;;;5.30;99.90;;;;;;5000178;28;20025;-74
2020/12/19 11:35:54;;;;;;;81.28;45.05;;;5.30;99.90;;;;;;5013493;28;20083;-78
2020/12/19 11:38:19;;;;;;;84.85;49.80;;;5.40;99.90;;;;;;5019408;28;20068;-74
2020/12/19 11:40:45;;;;;;;92.13;50.35;;;5.30;99.90;;;;;;5028978;28;20034;-78
2020/12/19 11:43:11;;;;;;;93.32;52.38;;;5.30;99.90;;;;;;5015950;28;20029;-74
2020/12/19 11:45:37;;;;;;;94.53;55.28;;;5.40;99.90;;;;;;5020281;28;20075;-76
2020/12/19 11:48:02;;;;;;;94.47;54.47;;;5.40;99.90;;;;;;5009478;28;20022;-76
2020/12/19 11:50:28;;;;;;;94.15;52.15;;;5.40;99.90;;;;;;5024929;28;20120;-74
2020/12/19 11:52:54;;;;;;;91.55;50.40;;;5.50;99.90;;;;;;5030519;28;20028;-74
2020/12/19 11:55:20;;;;;;;83.80;46.75;;;5.40;99.90;;;;;;5029518;28;20105;-76
2020/12/19 11:57:45;;;;;;;92.68;50.30;;;5.40;99.90;;;;;;5025411;28;20034;-73
2020/12/19 12:00:11;;;;;;;82.65;48.47;;;5.40;99.90;;;;;;5023392;28;20042;-74
2020/12/19 12:02:37;;;;;;;87.15;53.40;;;5.50;99.90;;;;;;5029338;28;20037;-73
2020/12/19 12:05:03;;;;;;;88.13;55.15;;;5.50;99.90;;;;;;5033991;28;20108;-73
2020/12/19 12:07:29;;;;;;;91.25;51.03;;;5.50;99.90;;;;;;5034814;28;20029;-75
2020/12/19 12:09:55;;;;;;;77.05;47.33;;;5.60;99.90;;;;;;5002736;28;20040;-72
2020/12/19 12:12:24;;;;;;;90.90;52.88;;;5.50;99.90;;;;;;5023576;28;20080;-81
2020/12/19 12:14:50;;;;;;;84.75;51.05;;;5.50;99.90;;;;;;5026119;28;20049;-74
2020/12/19 12:17:15;;;;;;;81.63;45.53;;;5.50;99.90;;;;;;5020601;28;20026;-75
2020/12/19 12:19:41;;;;;;;66.97;35.83;;;5.50;99.90;;;;;;5017461;28;20026;-74
2020/12/19 12:22:07;;;;;;;39.40;22.83;;;5.50;99.90;;;;;;5020676;28;20037;-78
2020/12/19 12:24:33;;;;;;;35.70;20.50;;;5.50;99.90;;;;;;5004107;28;20266;-77
2020/12/19 12:26:58;;;;;;;38.35;19.50;;;5.60;99.90;;;;;;5012938;28;20030;-76
2020/12/19 12:29:24;;;;;;;44.20;20.38;;;5.60;99.90;;;;;;4990308;28;20044;-73
2020/12/19 12:31:50;;;;;;;37.40;22.00;;;5.60;99.90;;;;;;4987705;28;20039;-72
2020/12/19 12:34:16;;;;;;;40.65;22.35;;;5.50;99.90;;;;;;4988726;28;20062;-73
2020/12/19 12:36:43;;;;;;;38.85;21.02;;;5.60;99.90;;;;;;4974709;28;20035;-76
2020/12/19 12:39:10;;;;;;;36.95;21.33;;;5.60;99.90;;;;;;4977553;28;20042;-74
2020/12/19 12:41:36;;;;;;;44.25;23.92;;;5.50;99.90;;;;;;4975529;28;20049;-74